createdAt,value
2022-07-26T00:16:58.000Z,2.0
2022-07-26T00:19:34.000Z,2.0
2022-07-26T00:21:28.000Z,2.0
2022-07-26T00:22:51.000Z,1.0
2022-07-26T00:55:18.000Z,0.0
2022-07-26T01:25:21.000Z,1.0
2022-07-26T01:55:32.000Z,0.0
2022-07-26T02:25:36.000Z,0.0
2022-07-26T02:55:37.000Z,0.0
2022-07-26T03:25:39.000Z,1.0
2022-07-26T03:55:49.482Z,1
2022-07-26T04:25:56.000Z,7.0
2022-07-26T04:55:57.064Z,46
2022-07-26T05:26:00.000Z,72.0
2022-07-26T05:56:03.000Z,77.0
2022-07-26T06:26:07.000Z,72.0
2022-07-26T06:56:09.000Z,79.0
2022-07-26T07:26:12.000Z,513.0
2022-07-26T07:56:13.000Z,384.0
2022-07-26T08:26:23.000Z,811.0
2022-07-26T08:56:33.000Z,404.0
2022-07-26T09:26:33.000Z,202.0
2022-07-26T09:56:43.202Z,461
2022-07-26T10:26:51.000Z,943.0
2022-07-26T10:56:53.597Z,914
2022-07-26T11:26:58.000Z,955.0
2022-07-26T11:57:01.000Z,979.0
2022-07-26T12:27:04.000Z,274.0
2022-07-26T12:57:10.000Z,183.0
2022-07-26T13:27:12.000Z,192.0
2022-07-26T13:57:15.000Z,621.0
2022-07-26T14:27:17.000Z,805.0
2022-07-26T14:57:19.000Z,705.0
2022-07-26T15:27:22.000Z,124.0
2022-07-26T15:57:24.000Z,501.0
2022-07-26T16:27:33.055Z,400
2022-07-26T16:57:39.000Z,328.0
2022-07-26T17:27:42.000Z,36.0
2022-07-26T17:57:46.000Z,63.0
2022-07-26T18:27:46.000Z,23.0
2022-07-26T18:57:48.000Z,9.0
2022-07-26T19:27:49.280Z,1
2022-07-26T19:57:50.000Z,1.0
2022-07-26T20:27:51.000Z,0.0
2022-07-26T20:57:52.000Z,1.0
2022-07-26T21:27:53.211Z,2
2022-07-26T21:57:54.000Z,1.0
2022-07-26T22:28:03.000Z,1.0
2022-07-26T22:58:07.579Z,1
2022-07-26T23:28:11.000Z,1.0
2022-07-26T23:28:21.000Z,1.0
2022-07-26T23:28:32.000Z,1.0
2022-07-26T23:58:39.000Z,0.0
